Latest Weather Observations for Stenhouse Bay

IDS60801

Issued at 5:11 pm CST Sunday 15 September 2019 (issued every 10 minutes, with the page automatically refreshed every 10 minutes)

About weather observations | Map of weather stations | Latest weather observations for SA | Other Formats
Station Details ID: 022049 Name: STENHOUSE BAY Lat: -35.28 Lon: 136.94 Height: 42.0 m
Data from the previous 72 hours. | See also: Recent months at Stenhouse Bay
Date/Time
CST
Temp
°C
App
Temp
°C
Dew
Point
°C
Rel
Hum
%
Delta-T
°C
Wind Press
QNH
hPa
Press
MSL
hPa
Rain since
9am
mm
Dir  Spd
km/h
Gust
km/h
Spd
kts
Gust
kts
15/05:00pm 17.7 17.8 11.5 67 3.4 SW 2 6 1 3 1016.2 1016.2 0.0
15/04:30pm 17.7 16.8 11.3 66 3.5 SSW 7 9 4 5 1016.0 1016.0 0.0
15/04:00pm 17.7 16.8 12.6 72 2.8 SSW 9 13 5 7 1016.2 1016.2 0.0
15/03:30pm 17.3 16.0 12.4 73 2.7 SSW 11 17 6 9 1016.1 1016.1 0.0
15/03:00pm 18.4 16.1 10.3 59 4.3 SW 13 22 7 12 1015.9 1015.9 0.0
15/02:30pm 21.8 19.3 8.0 41 7.2 WSW 11 15 6 8 1016.0 1016.0 0.0
15/02:00pm 23.8 20.7 7.4 35 8.6 NW 13 20 7 11 1015.8 1015.8 0.0
15/01:30pm 23.6 20.7 8.1 37 8.2 NW 13 20 7 11 1016.1 1016.1 0.0
15/01:00pm 23.0 20.7 9.0 41 7.5 NW 11 19 6 10 1016.9 1016.9 0.0
15/12:30pm 20.3 16.2 10.1 52 5.5 W 22 35 12 19 1017.2 1017.2 0.0
15/12:00pm 23.7 19.4 6.9 34 8.7 NNW 19 33 10 18 1016.0 1016.0 0.0
15/11:30am 21.7 21.0 13.1 58 4.9 NNE 9 15 5 8 1016.6 1016.6 0.0
15/11:00am 18.6 17.1 11.9 65 3.7 NE 11 15 6 8 1016.9 1016.9 0.0
15/10:30am 18.9 18.1 11.7 63 4.0 NE 7 11 4 6 1017.3 1017.3 0.0
15/10:00am 17.6 18.2 11.9 69 3.1 CALM 0 7 0 4 1017.8 1017.8 0.0
15/09:30am 16.6 15.0 11.7 73 2.7 SW 11 20 6 11 1018.5 1018.5 0.0
15/09:00am 17.2 17.2 11.2 68 3.2 N 2 6 1 3 1018.7 1018.7 0.0
15/08:30am 16.8 15.4 10.9 68 3.2 W 9 20 5 11 1019.0 1019.0 0.0
15/08:00am 16.7 15.3 10.8 68 3.2 W 9 13 5 7 1019.1 1019.1 0.0
15/07:30am 15.9 15.0 10.7 71 2.8 WNW 6 7 3 4 1018.3 1018.3 0.0
15/07:00am 15.2 14.9 10.0 71 2.7 SW 2 6 1 3 1017.8 1017.8 0.0
15/06:30am 15.6 13.2 9.9 69 3.0 SW 13 19 7 10 1017.8 1017.8 0.0
15/06:00am 14.5 13.2 9.3 71 2.7 NW 6 7 3 4 1017.3 1017.3 0.0
15/05:30am 15.0 14.1 9.4 69 2.9 NNW 4 6 2 3 1017.3 1017.3 0.0
15/05:00am 15.2 14.3 9.1 67 3.1 N 4 6 2 3 1017.1 1017.1 0.0
15/04:30am 16.4 14.9 9.3 63 3.7 SW 7 9 4 5 1016.9 1016.9 0.0
15/04:00am 17.0 12.9 10.1 64 3.7 SW 22 28 12 15 1017.3 1017.3 0.0
15/03:30am 17.5 14.7 9.9 61 4.0 W 15 19 8 10 1017.0 1017.0 0.0
15/03:00am 18.0 13.1 10.1 60 4.2 W 26 37 14 20 1017.0 1017.0 0.0
15/02:30am 17.7 13.7 9.1 57 4.5 NNW 20 26 11 14 1016.1 1016.1 0.0
15/02:00am 17.5 13.6 9.4 59 4.2 NNW 20 28 11 15 1016.2 1016.2 0.0
15/01:30am 18.0 14.1 9.6 58 4.4 N 20 26 11 14 1016.6 1016.6 0.0
15/01:00am 17.2 14.0 10.1 63 3.8 NNW 17 22 9 12 1017.5 1017.5 0.0
15/12:30am 17.9 14.4 10.3 61 4.1 NNW 19 20 10 11 1018.3 1018.3 0.0
15/12:00am 18.1 13.6 10.2 60 4.2 NNW 24 28 13 15 1019.1 1019.1 0.0
 
Date/Time
CST
Temp
°C
App
Temp
°C
Dew
Point
°C
Rel
Hum
%
Delta-T
°C
Wind Press
QNH
hPa
Press
MSL
hPa
Rain since
9am
mm
Dir  Spd
km/h
Gust
km/h
Spd
kts
Gust
kts
14/11:30pm 17.8 14.1 10.2 61 4.0 NNW 20 26 11 14 1019.1 1019.1 0.0
14/11:00pm 17.7 15.3 10.1 61 4.0 NW 13 17 7 9 1019.5 1019.5 0.0
14/10:30pm 17.5 14.7 9.9 61 4.0 NNW 15 20 8 11 1020.0 1020.0 0.0
14/10:00pm 16.5 14.6 10.4 67 3.2 NNW 11 15 6 8 1020.1 1020.1 0.0
14/09:30pm 16.0 14.0 10.1 68 3.1 N 11 13 6 7 1020.3 1020.3 0.0
14/09:00pm 17.2 17.2 9.9 62 3.8 CALM 0 2 0 1 1021.0 1021.0 0.0
14/08:30pm 17.4 17.0 9.8 61 4.0 N 2 4 1 2 1021.0 1021.0 0.0
14/08:00pm 16.4 17.0 11.8 74 2.5 CALM 0 0 0 0 1020.8 1020.8 0.0
14/07:30pm 16.6 16.4 11.7 73 2.7 SW 4 9 2 5 1021.0 1021.0 0.0
14/07:00pm 17.6 16.2 10.9 65 3.6 NNE 9 11 5 6 1020.6 1020.6 0.0
14/06:30pm 16.8 16.2 12.3 75 2.5 NNE 7 11 4 6 1020.6 1020.6 0.0
14/06:00pm 16.6 15.4 11.7 73 2.7 NE 9 11 5 6 1020.6 1020.6 0.0
14/05:30pm 16.2 16.0 12.9 81 1.8 NNE 6 6 3 3 1021.1 1021.1 0.0
14/05:00pm 15.7 15.2 12.8 83 1.6 NE 7 9 4 5 1021.5 1021.5 0.0
14/04:30pm 17.0 17.0 12.3 74 2.6 NNE 4 7 2 4 1021.7 1021.7 0.0
14/04:00pm 16.9 17.0 12.6 76 2.4 S 4 7 2 4 1022.1 1022.1 0.0
14/03:30pm 16.6 14.7 12.9 79 2.1 SSW 15 19 8 10 1022.6 1022.6 0.0
14/03:00pm 17.7 15.5 13.2 75 2.5 SSW 17 19 9 10 1022.7 1022.7 0.0
14/02:30pm 18.9 17.7 12.9 68 3.4 SW 11 17 6 9 1022.6 1022.6 0.0
14/02:08pm 17.0 14.7 11.7 71 2.9 SSW 15 24 8 13 1022.8 1022.8 0.0
14/02:00pm 22.1 19.0 8.9 43 7.0 NNW 15 22 8 12 1022.8 1022.8 0.0
14/01:30pm 25.9 23.0 9.7 36 8.9 N 15 24 8 13 1022.7 1022.7 0.0
14/01:00pm 24.3 22.1 9.5 39 8.1 NNE 11 24 6 13 1023.2 1023.2 0.0
14/12:58pm 23.4 22.2 11.5 47 6.7 NNE 9 22 5 12 1023.3 1023.3 0.0
14/12:30pm 18.4 17.4 12.2 67 3.4 ENE 9 13 5 7 1023.3 1023.3 0.0
14/12:00pm 18.4 17.6 11.7 65 3.7 ENE 7 11 4 6 1024.0 1024.0 0.0
14/11:30am 17.6 16.9 11.4 67 3.4 E 6 9 3 5 1024.3 1024.3 0.0
14/11:00am 17.0 15.9 11.9 72 2.8 ENE 9 11 5 6 1024.6 1024.6 0.0
14/10:30am 16.5 15.4 11.9 74 2.5 ENE 9 11 5 6 1024.9 1024.9 0.0
14/10:00am 16.3 15.5 11.7 74 2.5 ENE 7 11 4 6 1025.2 1025.2 0.0
14/09:30am 16.1 15.2 11.3 73 2.6 NE 7 9 4 5 1025.7 1025.7 0.0
14/09:00am 14.9 13.6 11.3 79 1.9 NE 9 11 5 6 1025.6 1025.6 0.2
14/08:30am 14.2 12.9 11.2 82 1.6 ENE 9 11 5 6 1025.7 1025.7 0.2
14/08:00am 13.5 11.2 11.7 89 1.0 NE 15 19 8 10 1025.4 1025.4 0.2
14/07:30am 12.1 10.3 11.0 93 0.6 NE 11 19 6 10 1025.6 1025.6 0.2
14/07:00am 11.3 9.4 10.4 94 0.5 NNE 11 15 6 8 1025.7 1025.7 0.2
14/06:30am 11.6 9.0 10.7 94 0.5 NE 15 19 8 10 1025.7 1025.7 0.2
14/06:00am 11.7 9.9 10.8 94 0.5 NE 11 17 6 9 1025.7 1025.7 0.2
14/05:30am 11.9 10.2 11.1 95 0.4 NE 11 15 6 8 1025.5 1025.5 0.0
14/05:00am 11.6 9.8 10.7 94 0.5 NE 11 15 6 8 1025.7 1025.7 0.0
14/04:30am 12.0 10.7 11.1 94 0.5 NE 9 13 5 7 1025.9 1025.9 0.0
14/04:00am 12.3 10.3 11.4 94 0.5 NE 13 17 7 9 1025.9 1025.9 0.0
14/03:30am 12.5 10.5 11.6 94 0.5 NE 13 17 7 9 1026.1 1026.1 0.0
14/03:00am 12.6 10.6 11.5 93 0.6 ENE 13 17 7 9 1026.3 1026.3 0.0
14/02:30am 12.7 10.7 11.6 93 0.6 ENE 13 17 7 9 1026.6 1026.6 0.0
14/02:00am 12.8 10.9 11.9 94 0.5 ENE 13 19 7 10 1027.0 1027.0 0.0
14/01:30am 12.7 11.2 11.8 94 0.5 ENE 11 15 6 8 1027.4 1027.4 0.0
14/01:00am 12.5 11.3 11.6 94 0.5 ENE 9 15 5 8 1027.7 1027.7 0.0
14/12:30am 11.4 9.8 10.3 93 0.6 NE 9 11 5 6 1027.8 1027.8 0.0
14/12:00am 10.3 8.8 9.1 92 0.6 N 7 9 4 5 1028.0 1028.0 0.0
 
Date/Time
CST
Temp
°C
App
Temp
°C
Dew
Point
°C
Rel
Hum
%
Delta-T
°C
Wind Press
QNH
hPa
Press
MSL
hPa
Rain since
9am
mm
Dir  Spd
km/h
Gust
km/h
Spd
kts
Gust
kts
13/11:30pm 10.3 8.3 8.6 89 0.8 N 9 13 5 7 1028.2 1028.2 0.0
13/11:00pm 12.5 11.1 10.9 90 0.8 NE 9 17 5 9 1028.1 1028.1 0.0
13/10:30pm 13.3 11.7 11.7 90 0.8 ESE 11 15 6 8 1028.0 1028.0 0.0
13/10:00pm 13.3 11.7 11.5 89 1.0 SSW 11 13 6 7 1028.1 1028.1 0.0
13/09:30pm 13.3 10.9 11.4 88 1.0 SSW 15 17 8 9 1028.0 1028.0 0.0
13/09:00pm 13.3 10.5 11.4 88 1.0 SSW 17 20 9 11 1028.0 1028.0 0.0
13/08:30pm 13.3 10.1 11.4 88 1.0 SSW 19 24 10 13 1027.9 1027.9 0.0
13/08:00pm 13.2 10.4 11.3 88 1.0 SSW 17 22 9 12 1027.7 1027.7 0.0
13/07:30pm 13.1 9.9 11.2 88 1.0 SW 19 22 10 12 1027.6 1027.6 0.0
13/07:00pm 13.1 9.6 11.0 87 1.1 SW 20 26 11 14 1027.4 1027.4 0.0
13/06:30pm 13.1 9.7 10.6 85 1.3 SW 19 24 10 13 1027.2 1027.2 0.0
13/06:00pm 13.5 11.2 10.5 82 1.6 SW 13 20 7 11 1027.2 1027.2 0.0
13/05:30pm 14.3 12.0 10.3 77 2.1 SW 13 19 7 10 1027.0 1027.0 0.0
13/05:00pm 15.0 12.4 10.8 76 2.2 SW 15 20 8 11 1027.1 1027.1 0.0
13/04:30pm 15.5 11.5 10.5 72 2.6 SW 22 30 12 16 1027.0 1027.0 0.0
13/04:00pm 15.7 12.1 10.5 71 2.8 SW 20 28 11 15 1027.2 1027.2 0.0
13/03:30pm 17.0 13.8 11.1 68 3.2 WSW 19 26 10 14 1027.0 1027.0 0.0
13/03:00pm 16.9 13.3 10.5 66 3.4 SW 20 28 11 15 1027.0 1027.0 0.0
13/02:30pm 18.5 15.9 10.8 61 4.1 WSW 15 20 8 11 1026.7 1026.7 0.0
13/02:00pm 17.0 13.9 10.4 65 3.5 SW 17 22 9 12 1026.9 1026.9 0.0
13/01:30pm 17.5 14.1 10.6 64 3.7 SW 19 24 10 13 1027.0 1027.0 0.0
13/01:00pm 17.3 13.2 10.0 62 3.9 SW 22 28 12 15 1026.8 1026.8 0.0
13/12:30pm 17.2 15.9 10.1 63 3.7 E 7 11 4 6 1026.7 1026.7 0.0
13/12:00pm 16.2 14.7 10.7 70 2.9 S 9 15 5 8 1026.6 1026.6 0.0
13/11:30am 16.0 14.0 10.1 68 3.1 SSW 11 15 6 8 1026.8 1026.8 0.0
13/11:00am 15.7 13.6 9.8 68 3.1 SSW 11 17 6 9 1027.3 1027.3 0.0
13/10:30am 15.5 13.0 9.8 69 3.0 SSW 13 19 7 10 1027.9 1027.9 0.0
13/10:00am 14.9 13.5 9.5 70 2.8 SW 7 13 4 7 1027.8 1027.8 0.0
13/09:30am 13.9 11.5 9.9 77 2.1 WSW 13 20 7 11 1028.0 1028.0 0.0
13/09:00am 13.1 10.7 9.9 81 1.6 WSW 13 22 7 12 1028.3 1028.3 0.0
13/08:30am 12.4 11.2 10.3 87 1.1 WSW 7 11 4 6 1027.5 1027.5 0.0
13/08:00am 12.1 10.8 9.8 86 1.2 SW 7 11 4 6 1027.2 1027.2 0.0
13/07:30am 12.1 10.4 9.7 85 1.2 WSW 9 13 5 7 1026.7 1026.7 0.0
13/07:00am 12.1 10.4 9.8 86 1.2 WSW 9 15 5 8 1026.5 1026.5 0.0
13/06:30am 11.7 8.7 9.4 86 1.2 WSW 15 19 8 10 1026.5 1026.5 0.0
13/06:00am 11.7 9.5 9.3 85 1.2 W 11 17 6 9 1026.5 1026.5 0.0
13/05:30am 12.1 9.9 9.5 84 1.3 W 11 19 6 10 1026.0 1026.0 0.0
13/05:00am 12.4 10.7 9.8 84 1.3 WNW 9 15 5 8 1025.2 1025.2 0.0
13/04:30am 12.6 11.5 10.0 84 1.3 WNW 6 9 3 5 1024.9 1024.9 0.0
13/04:00am 12.5 10.9 10.2 86 1.2 W 9 15 5 8 1025.0 1025.0 0.0
13/03:30am 12.4 11.8 10.3 87 1.1 N 4 7 2 4 1024.9 1024.9 0.0
13/03:00am 12.4 12.2 10.3 87 1.1 N 2 4 1 2 1025.1 1025.1 0.0
13/02:30am 12.4 12.2 10.3 87 1.1 N 2 6 1 3 1025.5 1025.5 0.0
13/02:00am 12.4 11.8 10.3 87 1.1 N 4 7 2 4 1025.7 1025.7 0.0
13/01:30am 12.5 11.5 10.4 87 1.1 NNE 6 7 3 4 1025.9 1025.9 0.0
13/01:00am 12.4 11.8 10.3 87 1.1 NNW 4 7 2 4 1026.1 1026.1 0.0
13/12:30am 12.5 11.3 10.4 87 1.1 N 7 9 4 5 1026.3 1026.3 0.0
13/12:00am 12.6 11.5 10.5 87 1.1 N 7 9 4 5 1026.3 1026.3 0.0
 
Date/Time
CST
Temp
°C
App
Temp
°C
Dew
Point
°C
Rel
Hum
%
Delta-T
°C
Wind Press
QNH
hPa
Press
MSL
hPa
Rain since
9am
mm
Dir  Spd
km/h
Gust
km/h
Spd
kts
Gust
kts
12/11:30pm 12.6 11.5 10.5 87 1.1 N 7 9 4 5 1026.4 1026.4 0.0
12/11:00pm 12.8 11.8 10.9 88 1.0 NNE 7 9 4 5 1026.1 1026.1 0.0
12/10:30pm 12.7 11.4 11.1 90 0.8 NNE 9 13 5 7 1025.9 1025.9 0.0
12/10:00pm 12.9 11.3 11.5 91 0.7 NE 11 15 6 8 1025.8 1025.8 0.0
12/09:30pm 13.0 11.4 11.7 92 0.7 NE 11 19 6 10 1025.6 1025.6 0.0
12/09:00pm 12.0 10.9 10.6 91 0.7 NNW 7 11 4 6 1025.6 1025.6 0.0
12/08:30pm 12.5 12.0 10.9 90 0.8 W 4 7 2 4 1025.7 1025.7 0.0
12/08:00pm 13.0 10.3 11.6 91 0.7 SW 17 20 9 11 1025.5 1025.5 0.0
12/07:30pm 13.0 10.2 11.4 90 0.8 SW 17 20 9 11 1025.7 1025.7 0.0
12/07:00pm 13.2 10.0 11.4 89 1.0 SSW 19 22 10 12 1025.8 1025.8 0.0
12/06:30pm 13.3 10.5 11.4 88 1.0 SW 17 20 9 11 1025.3 1025.3 0.0
12/06:00pm 13.5 10.7 11.2 86 1.2 SW 17 22 9 12 1025.1 1025.1 0.0
12/05:30pm 14.3 11.5 11.3 82 1.6 SW 17 20 9 11 1024.8 1024.8 0.0

Other formats

Comma delimited format used in spreadsheet applications
http://www.bom.gov.au/fwo/IDS60801/IDS60801.95806.axf

JavaScript Object Notation format (JSON) in row-major order
http://www.bom.gov.au/fwo/IDS60801/IDS60801.95806.json

Data quality

Most of these data are generated automatically and are frequently updated. Quality checks on data are not normally performed. It is possible for incorrect values to appear. Refer to information at About Latest Weather Observations and please check the disclaimer before using these data.